SCDA 170600Z 20004KT CAVOK 19/14 Q1014